Time;durP1;ratioP1;P1;durP2;ratioP2;P2;SDS_P1;SDS_P2;PMS_P1;PMS_P2;Temp;Humidity;BMP_temperature;BMP_pressure;BME280_temperature;BME280_humidity;BME280_pressure;Samples;Min_cycle;Max_cycle;Signal;HPM_P1;HPM_P2
2024/02/18 00:01:35;;;;;;;7.40;6.70;;;10.90;99.90;;;;;;5020215;28;20524;-68
2024/02/18 00:04:01;;;;;;;12.17;7.63;;;10.80;99.90;;;;;;5019137;28;20522;-68
2024/02/18 00:06:29;;;;;;;7.33;6.50;;;10.80;99.90;;;;;;5014467;28;20674;-69
2024/02/18 00:08:55;;;;;;;7.47;6.73;;;10.70;99.90;;;;;;5009193;28;20181;-69
2024/02/18 00:11:20;;;;;;;8.90;6.50;;;10.80;99.90;;;;;;5020845;28;21140;-69
2024/02/18 00:13:46;;;;;;;8.37;7.37;;;10.70;99.90;;;;;;5014937;28;20205;-69
2024/02/18 00:16:12;;;;;;;9.83;7.20;;;10.70;99.90;;;;;;5018687;28;20656;-69
2024/02/18 00:18:37;;;;;;;10.53;8.00;;;10.80;99.90;;;;;;5011948;28;20589;-69
2024/02/18 00:21:04;;;;;;;9.90;7.70;;;10.80;99.90;;;;;;5003979;28;20185;-68
2024/02/18 00:23:29;;;;;;;10.77;8.87;;;10.80;99.90;;;;;;5018513;28;20177;-69
2024/02/18 00:25:55;;;;;;;9.53;8.20;;;10.80;99.90;;;;;;5019638;28;20514;-69
2024/02/18 00:28:21;;;;;;;9.47;8.33;;;10.70;99.90;;;;;;5018350;28;20188;-69
2024/02/18 00:30:50;;;;;;;11.77;8.43;;;10.70;99.90;;;;;;5020265;28;20430;-69
2024/02/18 00:33:18;;;;;;;9.40;8.20;;;10.80;99.90;;;;;;5017620;28;20446;-69
2024/02/18 00:35:43;;;;;;;11.43;8.90;;;10.80;99.90;;;;;;5020678;28;20815;-68
2024/02/18 00:38:09;;;;;;;10.67;8.40;;;10.70;99.90;;;;;;5015751;28;20432;-69
2024/02/18 00:40:35;;;;;;;11.00;8.77;;;10.80;99.90;;;;;;5020120;28;20210;-69
2024/02/18 00:43:00;;;;;;;9.33;8.13;;;10.80;99.90;;;;;;5017780;28;20169;-68
2024/02/18 00:45:26;;;;;;;10.27;8.00;;;10.80;99.90;;;;;;5019910;28;20212;-68
2024/02/18 00:47:52;;;;;;;9.80;8.50;;;10.80;99.90;;;;;;5026492;28;20188;-69
2024/02/18 00:50:17;;;;;;;10.30;9.07;;;10.80;99.90;;;;;;5022674;28;20239;-69
2024/02/18 00:52:43;;;;;;;10.53;9.43;;;10.90;99.90;;;;;;5031294;28;20211;-69
2024/02/18 00:55:08;;;;;;;9.07;8.17;;;10.90;99.90;;;;;;5019970;28;20483;-69
2024/02/18 00:57:35;;;;;;;11.47;9.10;;;10.90;99.90;;;;;;5026569;28;20209;-70
2024/02/18 01:00:00;;;;;;;11.50;9.20;;;10.90;99.90;;;;;;5015854;28;20697;-68
2024/02/18 01:02:30;;;;;;;9.40;8.47;;;10.80;99.90;;;;;;5014760;28;20550;-68
2024/02/18 01:04:56;;;;;;;11.80;8.97;;;10.80;99.90;;;;;;5018545;28;20196;-68
2024/02/18 01:07:22;;;;;;;11.40;9.40;;;10.80;99.90;;;;;;5011929;28;20826;-69
2024/02/18 01:09:49;;;;;;;9.90;8.30;;;10.70;99.90;;;;;;5016932;28;20415;-68
2024/02/18 01:12:16;;;;;;;10.37;8.83;;;10.70;99.90;;;;;;5012435;28;20319;-68
2024/02/18 01:14:43;;;;;;;12.53;8.17;;;10.60;99.90;;;;;;5018510;28;20503;-68
2024/02/18 01:17:09;;;;;;;12.60;8.73;;;10.60;99.90;;;;;;5008105;28;20447;-68
2024/02/18 01:19:36;;;;;;;11.90;8.90;;;10.60;99.90;;;;;;5020122;28;20435;-69
2024/02/18 01:22:01;;;;;;;11.53;8.77;;;10.60;99.90;;;;;;5020650;28;20272;-68
2024/02/18 01:24:27;;;;;;;12.20;9.13;;;10.60;99.90;;;;;;5018211;28;20527;-68
2024/02/18 01:26:53;;;;;;;9.80;8.70;;;10.70;99.90;;;;;;5020473;28;21381;-68
2024/02/18 01:29:18;;;;;;;9.17;8.27;;;10.70;99.90;;;;;;5023121;28;20187;-68
2024/02/18 01:31:44;;;;;;;8.93;8.00;;;10.60;99.90;;;;;;5018790;28;20263;-68
2024/02/18 01:34:09;;;;;;;9.63;7.90;;;10.60;99.90;;;;;;5009355;28;20231;-68
2024/02/18 01:36:35;;;;;;;10.83;8.17;;;10.60;99.90;;;;;;5014847;28;20180;-68
2024/02/18 01:39:01;;;;;;;10.77;8.00;;;10.50;99.90;;;;;;5019993;28;20309;-68
2024/02/18 01:41:27;;;;;;;11.63;8.27;;;10.50;99.90;;;;;;5015251;28;20231;-69
2024/02/18 01:43:52;;;;;;;9.67;8.13;;;10.60;99.90;;;;;;5016345;28;20519;-68
2024/02/18 01:46:18;;;;;;;9.87;7.83;;;10.50;99.90;;;;;;5013802;28;20258;-69
2024/02/18 01:48:44;;;;;;;9.20;7.60;;;10.50;99.90;;;;;;5018094;28;20185;-69
2024/02/18 01:51:10;;;;;;;9.67;8.27;;;10.40;99.90;;;;;;5017138;28;20807;-69
2024/02/18 01:53:38;;;;;;;11.17;8.23;;;10.40;99.90;;;;;;5014914;28;20303;-68
2024/02/18 01:56:04;;;;;;;9.50;8.50;;;10.50;99.90;;;;;;5016104;28;20839;-68
2024/02/18 01:58:31;;;;;;;11.07;9.03;;;10.40;99.90;;;;;;5014372;28;20811;-68
2024/02/18 02:00:57;;;;;;;9.70;7.47;;;10.40;99.90;;;;;;5012545;28;20499;-68
2024/02/18 02:03:23;;;;;;;10.67;8.67;;;10.50;99.90;;;;;;5016586;28;20787;-69
2024/02/18 02:05:49;;;;;;;9.50;8.50;;;10.40;99.90;;;;;;5012750;28;20428;-68
2024/02/18 02:08:15;;;;;;;11.53;9.40;;;10.40;99.90;;;;;;5014254;28;20176;-68
2024/02/18 02:10:41;;;;;;;11.87;8.67;;;10.40;99.90;;;;;;5013923;28;20435;-68
2024/02/18 02:13:06;;;;;;;10.73;8.03;;;10.40;99.90;;;;;;5013217;28;20188;-69
2024/02/18 02:15:32;;;;;;;10.83;8.37;;;10.50;99.90;;;;;;5012101;28;20609;-69
2024/02/18 02:17:58;;;;;;;12.03;7.93;;;10.50;99.90;;;;;;5016540;28;20188;-69
2024/02/18 02:20:23;;;;;;;11.67;8.70;;;10.40;99.90;;;;;;5016922;28;20415;-68
2024/02/18 02:22:49;;;;;;;11.30;8.60;;;10.40;99.90;;;;;;5010289;28;20540;-69
2024/02/18 02:25:15;;;;;;;10.40;8.50;;;10.50;99.90;;;;;;5011172;28;20725;-68
2024/02/18 02:27:42;;;;;;;11.27;7.93;;;10.40;99.90;;;;;;5020389;28;20188;-68
2024/02/18 02:30:08;;;;;;;11.70;8.53;;;10.40;99.90;;;;;;5013319;28;20937;-68
2024/02/18 02:32:37;;;;;;;12.17;8.00;;;10.40;99.90;;;;;;5008336;28;20424;-68
2024/02/18 02:35:03;;;;;;;9.10;7.10;;;10.40;99.90;;;;;;5018288;28;20465;-68
2024/02/18 02:37:29;;;;;;;10.40;8.63;;;10.30;99.90;;;;;;5011064;28;20419;-68
2024/02/18 02:39:55;;;;;;;11.03;8.37;;;10.20;99.90;;;;;;5016125;28;20432;-68
2024/02/18 02:42:20;;;;;;;11.03;8.40;;;10.20;99.90;;;;;;5009552;28;20759;-68
2024/02/18 02:44:46;;;;;;;10.93;8.20;;;10.20;99.90;;;;;;5012816;28;20204;-68
2024/02/18 02:47:12;;;;;;;14.53;8.13;;;10.20;99.90;;;;;;5013172;28;20188;-68
2024/02/18 02:49:37;;;;;;;11.13;8.17;;;10.10;99.90;;;;;;5016795;28;20177;-68
2024/02/18 02:52:04;;;;;;;11.10;8.30;;;10.20;99.90;;;;;;5018799;28;20196;-69
2024/02/18 02:54:29;;;;;;;9.33;8.03;;;10.10;99.90;;;;;;5010103;28;20223;-68
2024/02/18 02:56:55;;;;;;;9.37;7.73;;;10.00;99.90;;;;;;5011029;28;20436;-68
2024/02/18 02:59:21;;;;;;;9.80;7.60;;;10.00;99.90;;;;;;5011620;28;20172;-68
2024/02/18 03:01:46;;;;;;;8.13;6.97;;;9.90;99.90;;;;;;5013188;28;20550;-68
2024/02/18 03:04:12;;;;;;;10.10;7.77;;;9.90;99.90;;;;;;5012828;28;20322;-68
2024/02/18 03:06:38;;;;;;;9.63;7.40;;;9.90;99.90;;;;;;5015082;28;20194;-68
2024/02/18 03:09:04;;;;;;;9.40;7.03;;;10.00;99.90;;;;;;5018537;28;20188;-68
2024/02/18 03:11:29;;;;;;;9.53;7.00;;;10.00;99.90;;;;;;5011321;28;20881;-68
2024/02/18 03:13:55;;;;;;;8.80;7.90;;;10.00;99.90;;;;;;5014473;28;20216;-68
2024/02/18 03:16:21;;;;;;;9.70;7.57;;;9.90;99.90;;;;;;5007953;28;20192;-68
2024/02/18 03:18:46;;;;;;;8.60;6.77;;;9.90;99.90;;;;;;5011108;28;20702;-68
2024/02/18 03:21:12;;;;;;;10.30;7.30;;;9.90;99.90;;;;;;5011227;28;20197;-68
2024/02/18 03:23:38;;;;;;;9.37;7.37;;;9.90;99.90;;;;;;5012978;28;20236;-68
2024/02/18 03:26:04;;;;;;;8.20;7.03;;;9.90;99.90;;;;;;5016614;28;20183;-68
2024/02/18 03:28:30;;;;;;;9.13;7.40;;;9.90;99.90;;;;;;5013608;28;20327;-68
2024/02/18 03:30:56;;;;;;;9.07;6.80;;;9.80;99.90;;;;;;5007667;28;20515;-68
2024/02/18 03:33:21;;;;;;;10.20;7.10;;;9.90;99.90;;;;;;5018381;28;20189;-68
2024/02/18 03:35:47;;;;;;;9.03;6.70;;;9.90;99.90;;;;;;5020851;28;20315;-68
2024/02/18 03:38:13;;;;;;;7.77;6.90;;;9.90;99.90;;;;;;5012929;28;20776;-68
2024/02/18 03:40:42;;;;;;;7.40;6.37;;;9.90;99.90;;;;;;5008842;28;20671;-68
2024/02/18 03:43:08;;;;;;;9.67;6.53;;;9.90;99.90;;;;;;5011717;28;20992;-68
2024/02/18 03:45:33;;;;;;;8.23;6.40;;;9.80;99.90;;;;;;5019915;28;20463;-68
2024/02/18 03:47:59;;;;;;;7.80;7.00;;;9.90;99.90;;;;;;5014886;28;20195;-68
2024/02/18 03:50:24;;;;;;;8.90;7.17;;;9.90;99.90;;;;;;5022029;28;20185;-68
2024/02/18 03:52:50;;;;;;;8.03;7.17;;;9.90;99.90;;;;;;5017001;28;20220;-68
2024/02/18 03:55:16;;;;;;;9.57;6.73;;;9.90;99.90;;;;;;5012692;28;20216;-68
2024/02/18 03:57:42;;;;;;;7.70;6.40;;;9.90;99.90;;;;;;5015111;28;20182;-68
2024/02/18 04:00:12;;;;;;;7.60;6.80;;;9.90;99.90;;;;;;5018178;28;20185;-68
2024/02/18 04:02:42;;;;;;;8.33;6.73;;;9.90;99.90;;;;;;5015464;28;20415;-68
2024/02/18 04:05:10;;;;;;;7.90;6.20;;;9.90;99.90;;;;;;5016718;28;20517;-68
2024/02/18 04:07:36;;;;;;;9.73;5.90;;;9.80;99.90;;;;;;5016027;28;20450;-68
2024/02/18 04:10:03;;;;;;;8.27;6.17;;;9.80;99.90;;;;;;5022883;28;20447;-68
2024/02/18 04:12:30;;;;;;;6.40;5.70;;;9.80;99.90;;;;;;5012462;28;20185;-68
2024/02/18 04:14:55;;;;;;;5.90;5.30;;;9.80;99.90;;;;;;5019813;28;20485;-68
2024/02/18 04:17:21;;;;;;;7.20;5.80;;;9.90;99.90;;;;;;5016528;28;20808;-69
2024/02/18 04:19:47;;;;;;;7.03;5.80;;;9.90;99.90;;;;;;5018376;28;20193;-68
2024/02/18 04:22:12;;;;;;;6.73;6.00;;;9.90;99.90;;;;;;5014270;28;20224;-68
2024/02/18 04:24:40;;;;;;;6.93;6.20;;;9.90;99.90;;;;;;5015140;28;20227;-67
2024/02/18 04:27:10;;;;;;;6.90;5.87;;;9.90;99.90;;;;;;5013429;28;20185;-69
2024/02/18 04:29:39;;;;;;;8.23;5.30;;;9.90;99.90;;;;;;5012914;28;20439;-68
2024/02/18 04:32:05;;;;;;;7.53;5.87;;;10.00;99.90;;;;;;5021050;28;20443;-68
2024/02/18 04:34:31;;;;;;;7.10;5.30;;;10.00;99.90;;;;;;5016508;28;20515;-69
2024/02/18 04:36:57;;;;;;;6.33;5.23;;;9.90;99.90;;;;;;5014753;28;20463;-69
2024/02/18 04:39:23;;;;;;;8.90;5.73;;;9.80;99.90;;;;;;5018449;28;20435;-69
2024/02/18 04:41:49;;;;;;;7.53;6.60;;;9.80;99.90;;;;;;5015768;28;20184;-69
2024/02/18 04:44:15;;;;;;;12.00;6.70;;;9.70;99.90;;;;;;5016071;28;20260;-68
2024/02/18 04:46:41;;;;;;;7.83;6.50;;;9.70;99.90;;;;;;5013273;28;20196;-69
2024/02/18 04:49:07;;;;;;;6.20;5.60;;;9.80;99.90;;;;;;5021142;28;20442;-69
2024/02/18 04:51:32;;;;;;;9.57;6.80;;;9.70;99.90;;;;;;5012338;28;20538;-69
2024/02/18 04:53:58;;;;;;;6.63;5.93;;;9.70;99.90;;;;;;5017568;28;20690;-68
2024/02/18 04:56:23;;;;;;;9.00;6.13;;;9.70;99.90;;;;;;5017353;28;20607;-69
2024/02/18 04:58:49;;;;;;;7.00;5.90;;;9.70;99.90;;;;;;5017719;28;20510;-68
2024/02/18 05:01:14;;;;;;;7.90;6.17;;;9.70;99.90;;;;;;5013788;28;20189;-69
2024/02/18 05:03:43;;;;;;;8.90;5.97;;;9.70;99.90;;;;;;5014783;28;20671;-69
2024/02/18 05:06:08;;;;;;;7.40;6.37;;;9.70;99.90;;;;;;5013179;28;20189;-68
2024/02/18 05:08:35;;;;;;;9.00;7.10;;;9.60;99.90;;;;;;5012880;28;20521;-68
2024/02/18 05:11:01;;;;;;;6.97;6.03;;;9.60;99.90;;;;;;5015699;28;20272;-69
2024/02/18 05:13:26;;;;;;;6.87;6.17;;;9.60;99.90;;;;;;5012117;28;20523;-68
2024/02/18 05:15:52;;;;;;;6.90;6.00;;;9.60;99.90;;;;;;5016620;28;20723;-68
2024/02/18 05:18:18;;;;;;;12.03;6.37;;;9.50;99.90;;;;;;5016634;28;20176;-68
2024/02/18 05:20:44;;;;;;;6.20;5.60;;;9.60;99.90;;;;;;5012574;28;20651;-68
2024/02/18 05:23:11;;;;;;;6.03;5.43;;;9.60;99.90;;;;;;5018236;28;20528;-68
2024/02/18 05:25:38;;;;;;;9.90;5.97;;;9.70;99.90;;;;;;5015961;28;20252;-69
2024/02/18 05:28:07;;;;;;;6.10;5.50;;;9.80;99.90;;;;;;5010376;28;20873;-68
2024/02/18 05:30:33;;;;;;;7.17;6.00;;;9.70;99.90;;;;;;5013220;28;20424;-68
2024/02/18 05:32:59;;;;;;;8.67;6.60;;;9.70;99.90;;;;;;5019323;28;20513;-68
2024/02/18 05:35:25;;;;;;;7.17;5.97;;;9.60;99.90;;;;;;5015832;28;20472;-69
2024/02/18 05:37:51;;;;;;;6.87;6.20;;;9.60;99.90;;;;;;5019405;28;20193;-68
2024/02/18 05:40:17;;;;;;;6.97;5.60;;;9.70;99.90;;;;;;5014408;28;20181;-67
2024/02/18 05:42:43;;;;;;;6.20;5.60;;;9.70;99.90;;;;;;5010240;28;20506;-68
2024/02/18 05:45:09;;;;;;;7.77;6.93;;;9.70;99.90;;;;;;5021099;28;20448;-69
2024/02/18 05:47:34;;;;;;;7.57;6.30;;;9.70;99.90;;;;;;5016177;28;20189;-68
2024/02/18 05:50:00;;;;;;;10.33;6.77;;;9.80;99.90;;;;;;5014373;28;20533;-68
2024/02/18 05:52:25;;;;;;;7.03;5.40;;;9.70;99.90;;;;;;5013663;28;20200;-68
2024/02/18 05:54:51;;;;;;;8.00;6.07;;;9.70;99.90;;;;;;5012023;28;20217;-68
2024/02/18 05:57:17;;;;;;;10.23;6.13;;;9.80;99.90;;;;;;5018017;28;20203;-68
2024/02/18 05:59:42;;;;;;;7.20;5.60;;;9.80;99.90;;;;;;5012630;28;20211;-68
2024/02/18 06:02:08;;;;;;;7.27;5.40;;;9.80;99.90;;;;;;5013944;28;20188;-68
2024/02/18 06:04:33;;;;;;;7.10;6.10;;;9.80;99.90;;;;;;5015823;28;20212;-69
2024/02/18 06:06:59;;;;;;;7.00;5.40;;;9.80;99.90;;;;;;5012583;28;20196;-69
2024/02/18 06:09:25;;;;;;;6.30;5.07;;;9.70;99.90;;;;;;5010039;28;20184;-68
2024/02/18 06:11:53;;;;;;;12.63;5.70;;;9.80;99.90;;;;;;5017962;28;20199;-68
2024/02/18 06:14:20;;;;;;;7.30;5.30;;;9.70;99.90;;;;;;5020291;28;20723;-68
2024/02/18 06:16:45;;;;;;;10.33;5.47;;;9.80;99.90;;;;;;5015563;28;20440;-68
2024/02/18 06:19:11;;;;;;;6.37;5.20;;;9.70;99.90;;;;;;5011822;28;20415;-68
2024/02/18 06:21:37;;;;;;;6.07;4.97;;;9.70;99.90;;;;;;5012494;28;20174;-69
2024/02/18 06:24:03;;;;;;;6.90;5.07;;;9.70;99.90;;;;;;5022729;28;20783;-69
2024/02/18 06:26:29;;;;;;;5.77;5.20;;;9.60;99.90;;;;;;5009967;28;20173;-68
2024/02/18 06:28:55;;;;;;;9.60;5.20;;;9.70;99.90;;;;;;5009480;28;20451;-69
2024/02/18 06:31:21;;;;;;;5.73;4.90;;;9.70;99.90;;;;;;5013294;28;20582;-69
2024/02/18 06:33:47;;;;;;;5.67;4.83;;;9.70;99.90;;;;;;5017524;28;20209;-68
2024/02/18 06:36:13;;;;;;;6.33;5.40;;;9.70;99.90;;;;;;5010396;28;20519;-68
2024/02/18 06:38:42;;;;;;;7.77;5.27;;;9.70;99.90;;;;;;5010852;28;20501;-68
2024/02/18 06:41:09;;;;;;;7.83;5.57;;;9.70;99.90;;;;;;5018932;28;20334;-68
2024/02/18 06:43:34;;;;;;;6.33;5.03;;;9.70;99.90;;;;;;5010855;28;21503;-68
2024/02/18 06:46:00;;;;;;;6.13;4.90;;;9.80;99.90;;;;;;5012068;28;20434;-69
2024/02/18 06:48:25;;;;;;;8.53;5.80;;;9.80;99.90;;;;;;5010106;28;20177;-68
2024/02/18 06:50:51;;;;;;;6.43;5.37;;;9.80;99.90;;;;;;5015497;28;20395;-68
2024/02/18 06:53:17;;;;;;;7.30;5.33;;;9.80;99.90;;;;;;5015038;28;20183;-68
2024/02/18 06:55:43;;;;;;;6.53;5.80;;;9.80;99.90;;;;;;5013883;28;20205;-68
2024/02/18 06:58:09;;;;;;;7.10;5.20;;;9.80;99.90;;;;;;5017044;28;20445;-68
2024/02/18 07:00:34;;;;;;;5.60;4.90;;;9.90;99.90;;;;;;5015637;28;20197;-68
2024/02/18 07:03:00;;;;;;;5.70;5.13;;;9.90;99.90;;;;;;5016640;28;20189;-68
2024/02/18 07:05:26;;;;;;;6.90;5.77;;;10.00;99.90;;;;;;5014872;28;20205;-68
2024/02/18 07:07:51;;;;;;;6.50;5.20;;;10.10;99.90;;;;;;5012047;28;20207;-68
2024/02/18 07:10:17;;;;;;;5.33;4.80;;;10.10;99.90;;;;;;5013039;28;20268;-67
2024/02/18 07:12:42;;;;;;;5.90;4.77;;;10.20;99.90;;;;;;5011132;28;20187;-69
2024/02/18 07:15:10;;;;;;;6.60;4.80;;;10.30;99.90;;;;;;5011690;28;20860;-68
2024/02/18 07:17:35;;;;;;;7.87;5.00;;;10.30;99.90;;;;;;5021142;28;20196;-68
2024/02/18 07:20:01;;;;;;;7.80;5.80;;;10.40;99.90;;;;;;5015391;28;20502;-68
2024/02/18 07:22:27;;;;;;;10.50;7.77;;;10.30;99.90;;;;;;5016456;28;20606;-68
2024/02/18 07:24:52;;;;;;;14.10;7.87;;;10.40;99.90;;;;;;5017511;28;20270;-68
2024/02/18 07:27:18;;;;;;;11.17;6.67;;;10.40;99.90;;;;;;5023199;28;20277;-68
2024/02/18 07:29:43;;;;;;;7.37;5.77;;;10.30;99.90;;;;;;5015334;28;20181;-68
2024/02/18 07:32:09;;;;;;;7.70;5.27;;;10.40;99.90;;;;;;5021347;28;20235;-68
2024/02/18 07:34:34;;;;;;;9.07;6.83;;;10.40;99.90;;;;;;5017478;28;21550;-68
2024/02/18 07:37:00;;;;;;;5.40;4.90;;;10.40;99.90;;;;;;5012970;28;20675;-69
2024/02/18 07:39:27;;;;;;;5.50;4.90;;;10.40;99.90;;;;;;5019009;28;20200;-68
2024/02/18 07:41:53;;;;;;;10.43;5.10;;;10.40;99.90;;;;;;5015879;28;20267;-68
2024/02/18 07:44:18;;;;;;;9.17;5.00;;;10.40;99.90;;;;;;5015029;28;20463;-68
2024/02/18 07:46:45;;;;;;;5.77;4.47;;;10.50;99.90;;;;;;5015895;28;21018;-68
2024/02/18 07:49:13;;;;;;;7.97;6.90;;;10.40;99.90;;;;;;5015220;28;20197;-68
2024/02/18 07:51:38;;;;;;;6.43;4.93;;;10.50;99.90;;;;;;5015837;28;20976;-68
2024/02/18 07:54:04;;;;;;;5.10;4.60;;;10.50;99.90;;;;;;5019804;28;20455;-68
2024/02/18 07:56:30;;;;;;;5.77;4.57;;;10.60;99.90;;;;;;5017440;28;20189;-68
2024/02/18 07:58:55;;;;;;;8.50;5.00;;;10.70;99.90;;;;;;5015368;28;20242;-68
2024/02/18 08:01:21;;;;;;;6.13;4.40;;;10.70;99.90;;;;;;5011335;28;20187;-68
2024/02/18 08:03:46;;;;;;;4.97;4.47;;;10.70;99.90;;;;;;5018270;28;20280;-68
2024/02/18 08:06:12;;;;;;;7.67;5.57;;;10.70;99.90;;;;;;5018394;28;20211;-68
2024/02/18 08:08:37;;;;;;;7.60;5.50;;;10.70;99.90;;;;;;5021173;28;20188;-68
2024/02/18 08:11:03;;;;;;;8.90;6.70;;;10.60;99.90;;;;;;5023022;28;20187;-68
2024/02/18 08:13:28;;;;;;;8.97;5.80;;;10.50;99.90;;;;;;5014072;28;20220;-68
2024/02/18 08:15:56;;;;;;;8.30;6.10;;;10.60;99.90;;;;;;5021852;28;20219;-68
2024/02/18 08:18:21;;;;;;;6.53;5.83;;;10.60;99.90;;;;;;5012588;28;20548;-68
2024/02/18 08:20:47;;;;;;;8.20;6.40;;;10.70;99.90;;;;;;5012571;28;20423;-68
2024/02/18 08:23:13;;;;;;;9.30;6.00;;;10.70;99.90;;;;;;5020516;28;20184;-68
2024/02/18 08:25:38;;;;;;;6.60;5.63;;;10.80;99.90;;;;;;5016219;28;20181;-68
2024/02/18 08:28:04;;;;;;;13.70;6.27;;;10.80;99.90;;;;;;5012132;28;20535;-68
2024/02/18 08:30:30;;;;;;;7.90;6.27;;;10.80;99.90;;;;;;5013164;28;20673;-68
2024/02/18 08:32:56;;;;;;;8.70;6.23;;;10.80;99.90;;;;;;5013381;28;20222;-68
2024/02/18 08:35:22;;;;;;;6.83;5.83;;;10.80;99.90;;;;;;5018199;28;20203;-69
2024/02/18 08:37:49;;;;;;;6.80;5.70;;;10.80;99.90;;;;;;5016216;28;20507;-68
2024/02/18 08:40:16;;;;;;;7.50;5.73;;;10.80;99.90;;;;;;5016672;28;20428;-68
2024/02/18 08:42:41;;;;;;;6.53;4.60;;;10.90;99.90;;;;;;5016265;28;20435;-68
2024/02/18 08:45:08;;;;;;;9.33;5.80;;;10.80;99.90;;;;;;5018245;28;20459;-68
2024/02/18 08:47:34;;;;;;;8.60;5.53;;;11.00;99.90;;;;;;5011149;28;20199;-68
2024/02/18 08:50:01;;;;;;;9.30;5.47;;;11.20;99.90;;;;;;5012652;28;20431;-69
2024/02/18 08:52:26;;;;;;;8.93;6.30;;;11.20;99.90;;;;;;5019268;28;20438;-68
2024/02/18 08:54:52;;;;;;;10.10;5.80;;;11.20;99.90;;;;;;5013152;28;20725;-68
2024/02/18 08:57:17;;;;;;;8.07;5.97;;;11.30;99.90;;;;;;5021509;28;20172;-68
2024/02/18 08:59:43;;;;;;;6.00;5.40;;;11.50;99.90;;;;;;5012447;28;20178;-68
2024/02/18 09:02:10;;;;;;;6.50;5.30;;;11.60;99.90;;;;;;5012129;28;20208;-68
2024/02/18 09:04:35;;;;;;;8.03;5.07;;;11.70;99.90;;;;;;5017278;28;20610;-68
2024/02/18 09:07:01;;;;;;;7.80;5.03;;;11.70;99.90;;;;;;5017715;28;20462;-68
2024/02/18 09:09:27;;;;;;;7.07;5.23;;;11.80;99.90;;;;;;5014080;28;20235;-68
2024/02/18 09:11:52;;;;;;;8.20;6.60;;;11.90;99.90;;;;;;5013385;28;20757;-68
2024/02/18 09:14:18;;;;;;;8.50;5.70;;;11.90;99.90;;;;;;5010845;28;21066;-68
2024/02/18 09:16:44;;;;;;;10.13;5.77;;;11.90;99.90;;;;;;5015098;28;20197;-68
2024/02/18 09:19:09;;;;;;;8.87;6.57;;;12.00;99.90;;;;;;5013992;28;20200;-68
2024/02/18 09:21:35;;;;;;;8.93;7.27;;;12.10;99.90;;;;;;5015478;28;20200;-68
2024/02/18 09:24:00;;;;;;;7.30;6.47;;;12.10;99.90;;;;;;5012585;28;20248;-68
2024/02/18 09:26:26;;;;;;;10.13;7.13;;;12.10;99.90;;;;;;5014319;28;20180;-68
2024/02/18 09:28:52;;;;;;;8.93;7.43;;;12.10;99.90;;;;;;5008106;28;20189;-68
2024/02/18 09:31:17;;;;;;;10.93;8.13;;;12.20;99.90;;;;;;5014407;28;20233;-68
2024/02/18 09:33:43;;;;;;;10.33;8.73;;;12.20;99.90;;;;;;5012721;28;20284;-68
2024/02/18 09:36:09;;;;;;;9.73;8.27;;;12.20;99.90;;;;;;5018462;28;20631;-68
2024/02/18 09:38:37;;;;;;;10.53;8.50;;;12.30;99.90;;;;;;5011171;28;20442;-68
2024/02/18 09:41:03;;;;;;;12.50;8.40;;;12.30;99.90;;;;;;5011960;28;20675;-68
2024/02/18 09:43:41;;;;;;;9.30;8.30;;;12.40;99.90;;;;;;5015544;28;20449;-68
2024/02/18 09:46:08;;;;;;;13.57;8.90;;;12.40;99.90;;;;;;5011069;28;20435;-68
2024/02/18 09:48:36;;;;;;;12.30;10.10;;;12.40;99.90;;;;;;5011234;28;20845;-68
2024/02/18 09:51:03;;;;;;;11.40;7.67;;;12.60;99.90;;;;;;5011638;28;20473;-68
2024/02/18 09:53:31;;;;;;;10.30;8.90;;;12.50;99.90;;;;;;5018530;28;20431;-68
2024/02/18 09:55:56;;;;;;;10.13;9.13;;;12.50;99.90;;;;;;5012802;28;20471;-68
2024/02/18 09:58:22;;;;;;;9.87;8.30;;;12.50;99.90;;;;;;5014805;28;21172;-68
2024/02/18 10:00:48;;;;;;;13.53;9.33;;;12.60;99.90;;;;;;5016516;28;20185;-69
2024/02/18 10:03:14;;;;;;;11.00;8.47;;;12.60;99.90;;;;;;5013388;28;20331;-68
2024/02/18 10:05:40;;;;;;;10.10;8.30;;;12.60;99.90;;;;;;5017439;28;20271;-68
2024/02/18 10:08:06;;;;;;;10.30;9.00;;;12.70;99.90;;;;;;5015355;28;20523;-68
2024/02/18 10:10:35;;;;;;;13.67;9.87;;;12.80;99.90;;;;;;5013039;28;20189;-68
2024/02/18 10:13:02;;;;;;;9.77;8.70;;;12.80;99.90;;;;;;5008685;28;20197;-68
2024/02/18 10:15:28;;;;;;;12.20;9.70;;;12.80;99.90;;;;;;5015665;28;20466;-68
2024/02/18 10:17:53;;;;;;;10.67;9.57;;;12.90;99.90;;;;;;5013274;28;20948;-68
2024/02/18 10:20:19;;;;;;;10.80;9.27;;;12.90;99.90;;;;;;5012601;28;20420;-68
2024/02/18 10:22:45;;;;;;;10.93;9.57;;;13.00;99.90;;;;;;5009577;28;20181;-68
2024/02/18 10:25:10;;;;;;;8.77;7.83;;;13.00;99.90;;;;;;5014509;28;20208;-68
2024/02/18 10:27:37;;;;;;;11.07;8.20;;;13.10;99.90;;;;;;5015226;28;20918;-68
2024/02/18 10:30:03;;;;;;;10.17;8.83;;;13.10;99.90;;;;;;5013476;28;20203;-68
2024/02/18 10:32:30;;;;;;;11.07;8.70;;;13.10;99.90;;;;;;5013411;28;20447;-68
2024/02/18 10:34:56;;;;;;;11.87;8.87;;;13.20;99.90;;;;;;5010991;28;20463;-68
2024/02/18 10:37:40;;;;;;;9.47;8.10;;;13.20;99.90;;;;;;5009542;28;20419;-69
2024/02/18 10:40:25;;;;;;;9.30;8.27;;;13.20;99.90;;;;;;5009888;28;20302;-68
2024/02/18 10:42:52;;;;;;;10.17;8.20;;;13.30;99.90;;;;;;5015970;28;20444;-68
2024/02/18 10:45:20;;;;;;;8.70;7.73;;;13.40;99.90;;;;;;5014867;28;20435;-68
2024/02/18 10:47:51;;;;;;;10.43;7.87;;;13.40;99.90;;;;;;5003175;28;20485;-68
2024/02/18 10:50:17;;;;;;;10.10;7.70;;;13.50;99.90;;;;;;5015115;28;20500;-67
2024/02/18 10:52:44;;;;;;;11.00;8.03;;;13.50;99.90;;;;;;5014584;28;20440;-67
2024/02/18 10:55:24;;;;;;;12.50;8.20;;;13.50;99.90;;;;;;5011280;28;20216;-67
2024/02/18 10:58:16;;;;;;;8.93;8.03;;;13.60;99.90;;;;;;5013311;28;20980;-67
2024/02/18 11:00:45;;;;;;;7.90;7.10;;;13.60;99.90;;;;;;5011816;28;20982;-67
2024/02/18 11:03:42;;;;;;;12.63;8.03;;;13.60;99.90;;;;;;5009274;28;20423;-66
2024/02/18 11:06:09;;;;;;;9.77;8.13;;;13.60;99.90;;;;;;5021846;28;20517;-68
2024/02/18 11:08:39;;;;;;;11.13;7.93;;;13.60;99.90;;;;;;5013319;28;20447;-67
2024/02/18 11:11:07;;;;;;;11.57;9.17;;;13.70;99.90;;;;;;5010967;28;20429;-67
2024/02/18 11:13:34;;;;;;;9.83;7.93;;;13.60;99.90;;;;;;5014109;28;20431;-67
2024/02/18 11:16:01;;;;;;;15.17;8.80;;;13.70;99.90;;;;;;5010204;28;20569;-67
2024/02/18 11:18:31;;;;;;;11.93;8.73;;;13.70;99.90;;;;;;5012120;28;20512;-67
2024/02/18 11:20:57;;;;;;;11.60;7.77;;;13.70;99.90;;;;;;5012414;28;20416;-67
2024/02/18 11:23:23;;;;;;;9.57;7.30;;;13.80;99.90;;;;;;5009203;28;20973;-67
2024/02/18 11:25:50;;;;;;;8.40;7.50;;;14.00;99.90;;;;;;5010470;28;20420;-67
2024/02/18 11:28:17;;;;;;;17.90;8.20;;;14.00;99.90;;;;;;5014051;28;20436;-67
2024/02/18 11:30:42;;;;;;;10.17;8.60;;;14.10;99.90;;;;;;5018948;28;20444;-68
2024/02/18 11:33:08;;;;;;;8.90;7.77;;;14.00;99.90;;;;;;5006890;28;20425;-67
2024/02/18 11:35:34;;;;;;;9.90;8.00;;;14.00;99.90;;;;;;5011427;28;20478;-68
2024/02/18 11:38:01;;;;;;;9.67;8.53;;;14.10;99.90;;;;;;5010855;28;20227;-67
2024/02/18 11:40:28;;;;;;;9.50;7.40;;;13.90;99.90;;;;;;5015637;28;20169;-68
2024/02/18 11:42:54;;;;;;;10.23;7.93;;;13.70;99.90;;;;;;5011648;28;20426;-67
2024/02/18 11:45:21;;;;;;;10.57;8.77;;;13.60;99.90;;;;;;5013796;28;20457;-67
2024/02/18 11:47:51;;;;;;;8.70;7.37;;;13.70;99.90;;;;;;5016136;28;20407;-67
2024/02/18 11:50:19;;;;;;;9.57;8.20;;;13.80;99.90;;;;;;5010618;28;20440;-67
2024/02/18 11:52:47;;;;;;;10.33;8.00;;;13.80;99.90;;;;;;5013525;28;20419;-67
2024/02/18 11:55:15;;;;;;;8.50;7.27;;;13.90;99.90;;;;;;5015796;28;20471;-67
2024/02/18 11:57:41;;;;;;;9.80;7.93;;;13.90;99.90;;;;;;5018425;28;20424;-67
2024/02/18 12:00:12;;;;;;;10.60;8.73;;;13.90;99.90;;;;;;5014597;28;20923;-67
2024/02/18 12:02:39;;;;;;;9.53;7.80;;;13.90;99.90;;;;;;5011102;28;20488;-68
2024/02/18 12:05:06;;;;;;;8.43;7.63;;;13.90;99.90;;;;;;5017683;28;21000;-68
2024/02/18 12:07:33;;;;;;;12.60;8.20;;;13.90;99.90;;;;;;5019797;28;20462;-68
2024/02/18 12:09:59;;;;;;;8.47;7.50;;;13.90;99.90;;;;;;5019548;28;21135;-67
2024/02/18 12:12:26;;;;;;;8.03;7.23;;;13.80;99.90;;;;;;5017077;28;20515;-67
2024/02/18 12:14:56;;;;;;;9.27;8.37;;;13.80;99.90;;;;;;5016838;28;20470;-67
2024/02/18 12:17:22;;;;;;;10.43;8.30;;;13.80;99.90;;;;;;5012914;28;20763;-67
2024/02/18 12:19:49;;;;;;;13.37;7.70;;;13.80;99.90;;;;;;5017028;28;20799;-70
2024/02/18 12:22:22;;;;;;;9.47;8.57;;;13.60;99.90;;;;;;5015559;28;20493;-68
2024/02/18 12:24:49;;;;;;;9.13;7.53;;;13.50;99.90;;;;;;5017636;28;20463;-69
2024/02/18 12:27:15;;;;;;;9.87;7.70;;;13.60;99.90;;;;;;5017613;28;21124;-68
2024/02/18 12:29:41;;;;;;;11.60;7.53;;;13.60;99.90;;;;;;5014854;28;20844;-68
2024/02/18 12:32:10;;;;;;;8.73;7.73;;;13.50;99.90;;;;;;5020824;28;20416;-68
2024/02/18 12:34:36;;;;;;;10.00;7.30;;;13.50;99.90;;;;;;5018412;28;20208;-69
2024/02/18 12:37:02;;;;;;;9.00;8.07;;;13.40;99.90;;;;;;5012400;28;20462;-68
2024/02/18 12:39:28;;;;;;;10.60;7.60;;;13.40;99.90;;;;;;5018804;28;20173;-68
2024/02/18 12:41:54;;;;;;;11.37;8.17;;;13.40;99.90;;;;;;5012760;28;20427;-68